sensor_id;sensor_type;location;lat;lon;timestamp;P1;durP1;ratioP1;P2;durP2;ratioP2
3293;SDS011;1659;51.470;6.770;2023-03-08T00:02:12;40.20;;;17.40;;
3293;SDS011;1659;51.470;6.770;2023-03-08T00:04:39;40.00;;;18.00;;
3293;SDS011;1659;51.470;6.770;2023-03-08T00:07:05;35.30;;;15.97;;
3293;SDS011;1659;51.470;6.770;2023-03-08T00:09:32;39.53;;;18.57;;
3293;SDS011;1659;51.470;6.770;2023-03-08T00:12:00;45.33;;;18.97;;
3293;SDS011;1659;51.470;6.770;2023-03-08T00:14:26;39.20;;;17.60;;
3293;SDS011;1659;51.470;6.770;2023-03-08T00:16:53;33.93;;;17.43;;
3293;SDS011;1659;51.470;6.770;2023-03-08T00:19:19;40.40;;;18.43;;
3293;SDS011;1659;51.470;6.770;2023-03-08T00:21:46;35.43;;;17.83;;
3293;SDS011;1659;51.470;6.770;2023-03-08T00:24:12;39.73;;;17.50;;
3293;SDS011;1659;51.470;6.770;2023-03-08T00:26:40;39.13;;;17.63;;
3293;SDS011;1659;51.470;6.770;2023-03-08T00:29:08;32.17;;;17.60;;
3293;SDS011;1659;51.470;6.770;2023-03-08T00:31:35;43.07;;;17.70;;
3293;SDS011;1659;51.470;6.770;2023-03-08T00:34:02;34.07;;;17.03;;
3293;SDS011;1659;51.470;6.770;2023-03-08T00:36:28;33.33;;;17.40;;
3293;SDS011;1659;51.470;6.770;2023-03-08T00:38:55;32.73;;;16.97;;
3293;SDS011;1659;51.470;6.770;2023-03-08T00:41:22;35.63;;;18.10;;
3293;SDS011;1659;51.470;6.770;2023-03-08T00:43:48;40.80;;;17.00;;
3293;SDS011;1659;51.470;6.770;2023-03-08T00:46:17;31.37;;;16.90;;
3293;SDS011;1659;51.470;6.770;2023-03-08T00:48:43;35.10;;;16.90;;
3293;SDS011;1659;51.470;6.770;2023-03-08T00:51:11;28.90;;;15.90;;
3293;SDS011;1659;51.470;6.770;2023-03-08T00:53:39;35.53;;;18.27;;
3293;SDS011;1659;51.470;6.770;2023-03-08T00:56:06;32.40;;;15.87;;
3293;SDS011;1659;51.470;6.770;2023-03-08T00:58:32;39.00;;;16.97;;
3293;SDS011;1659;51.470;6.770;2023-03-08T01:00:59;29.00;;;16.33;;
3293;SDS011;1659;51.470;6.770;2023-03-08T01:03:27;34.57;;;17.20;;
3293;SDS011;1659;51.470;6.770;2023-03-08T01:05:54;36.30;;;17.60;;
3293;SDS011;1659;51.470;6.770;2023-03-08T01:08:22;36.87;;;17.63;;
3293;SDS011;1659;51.470;6.770;2023-03-08T01:10:51;35.73;;;16.57;;
3293;SDS011;1659;51.470;6.770;2023-03-08T01:13:18;35.17;;;17.23;;
3293;SDS011;1659;51.470;6.770;2023-03-08T01:15:45;33.93;;;18.03;;
3293;SDS011;1659;51.470;6.770;2023-03-08T01:18:12;33.10;;;17.00;;
3293;SDS011;1659;51.470;6.770;2023-03-08T01:20:40;27.33;;;15.57;;
3293;SDS011;1659;51.470;6.770;2023-03-08T01:23:07;37.67;;;17.23;;
3293;SDS011;1659;51.470;6.770;2023-03-08T01:25:34;32.87;;;17.07;;
3293;SDS011;1659;51.470;6.770;2023-03-08T01:28:00;34.57;;;17.97;;
3293;SDS011;1659;51.470;6.770;2023-03-08T01:30:27;38.47;;;18.93;;
3293;SDS011;1659;51.470;6.770;2023-03-08T01:32:53;31.50;;;17.03;;
3293;SDS011;1659;51.470;6.770;2023-03-08T01:35:20;33.57;;;17.77;;
3293;SDS011;1659;51.470;6.770;2023-03-08T01:37:50;29.53;;;15.90;;
3293;SDS011;1659;51.470;6.770;2023-03-08T01:40:18;31.60;;;17.13;;
3293;SDS011;1659;51.470;6.770;2023-03-08T01:42:44;32.70;;;16.83;;
3293;SDS011;1659;51.470;6.770;2023-03-08T01:48:15;35.20;;;18.10;;
3293;SDS011;1659;51.470;6.770;2023-03-08T01:50:42;43.07;;;18.90;;
3293;SDS011;1659;51.470;6.770;2023-03-08T01:53:12;33.20;;;17.20;;
3293;SDS011;1659;51.470;6.770;2023-03-08T01:55:40;38.17;;;18.17;;
3293;SDS011;1659;51.470;6.770;2023-03-08T01:58:07;38.20;;;18.60;;
3293;SDS011;1659;51.470;6.770;2023-03-08T02:00:34;35.53;;;19.13;;
3293;SDS011;1659;51.470;6.770;2023-03-08T02:03:04;31.73;;;18.03;;
3293;SDS011;1659;51.470;6.770;2023-03-08T02:05:34;37.70;;;16.50;;
3293;SDS011;1659;51.470;6.770;2023-03-08T02:08:02;36.33;;;19.47;;
3293;SDS011;1659;51.470;6.770;2023-03-08T02:10:30;40.70;;;19.37;;
3293;SDS011;1659;51.470;6.770;2023-03-08T02:12:57;36.60;;;18.67;;
3293;SDS011;1659;51.470;6.770;2023-03-08T02:15:23;30.43;;;16.50;;
3293;SDS011;1659;51.470;6.770;2023-03-08T02:17:50;37.00;;;19.20;;
3293;SDS011;1659;51.470;6.770;2023-03-08T02:20:17;42.80;;;20.80;;
3293;SDS011;1659;51.470;6.770;2023-03-08T02:22:49;43.47;;;19.93;;
3293;SDS011;1659;51.470;6.770;2023-03-08T02:25:18;39.83;;;21.10;;
3293;SDS011;1659;51.470;6.770;2023-03-08T02:27:46;41.40;;;19.50;;
3293;SDS011;1659;51.470;6.770;2023-03-08T02:30:15;36.07;;;19.90;;
3293;SDS011;1659;51.470;6.770;2023-03-08T02:32:43;37.97;;;19.40;;
3293;SDS011;1659;51.470;6.770;2023-03-08T02:35:09;39.67;;;18.60;;
3293;SDS011;1659;51.470;6.770;2023-03-08T02:37:36;42.00;;;21.43;;
3293;SDS011;1659;51.470;6.770;2023-03-08T02:40:05;38.07;;;19.60;;
3293;SDS011;1659;51.470;6.770;2023-03-08T02:42:32;40.33;;;19.20;;
3293;SDS011;1659;51.470;6.770;2023-03-08T02:44:59;44.47;;;17.57;;
3293;SDS011;1659;51.470;6.770;2023-03-08T02:47:25;35.50;;;19.77;;
3293;SDS011;1659;51.470;6.770;2023-03-08T02:49:52;38.73;;;19.50;;
3293;SDS011;1659;51.470;6.770;2023-03-08T02:52:18;36.03;;;17.90;;
3293;SDS011;1659;51.470;6.770;2023-03-08T02:54:45;30.40;;;17.17;;
3293;SDS011;1659;51.470;6.770;2023-03-08T02:57:13;39.73;;;18.70;;
3293;SDS011;1659;51.470;6.770;2023-03-08T02:59:39;37.30;;;19.00;;
3293;SDS011;1659;51.470;6.770;2023-03-08T03:02:06;34.00;;;19.13;;
3293;SDS011;1659;51.470;6.770;2023-03-08T03:04:33;43.87;;;19.23;;
3293;SDS011;1659;51.470;6.770;2023-03-08T03:06:59;39.30;;;19.17;;
3293;SDS011;1659;51.470;6.770;2023-03-08T03:09:26;36.80;;;16.97;;
3293;SDS011;1659;51.470;6.770;2023-03-08T03:11:53;32.77;;;17.97;;
3293;SDS011;1659;51.470;6.770;2023-03-08T03:14:21;32.20;;;17.10;;
3293;SDS011;1659;51.470;6.770;2023-03-08T03:16:48;30.90;;;17.13;;
3293;SDS011;1659;51.470;6.770;2023-03-08T03:19:14;32.03;;;15.90;;
3293;SDS011;1659;51.470;6.770;2023-03-08T03:21:41;32.53;;;15.63;;
3293;SDS011;1659;51.470;6.770;2023-03-08T03:24:07;31.50;;;14.57;;
3293;SDS011;1659;51.470;6.770;2023-03-08T03:26:34;28.03;;;14.57;;
3293;SDS011;1659;51.470;6.770;2023-03-08T03:29:00;29.43;;;14.27;;
3293;SDS011;1659;51.470;6.770;2023-03-08T03:31:28;30.90;;;15.80;;
3293;SDS011;1659;51.470;6.770;2023-03-08T03:33:55;22.57;;;12.90;;
3293;SDS011;1659;51.470;6.770;2023-03-08T03:36:22;27.10;;;14.17;;
3293;SDS011;1659;51.470;6.770;2023-03-08T03:38:49;26.67;;;13.40;;
3293;SDS011;1659;51.470;6.770;2023-03-08T03:41:16;28.73;;;13.47;;
3293;SDS011;1659;51.470;6.770;2023-03-08T03:43:44;28.80;;;14.70;;
3293;SDS011;1659;51.470;6.770;2023-03-08T03:46:12;31.93;;;16.90;;
3293;SDS011;1659;51.470;6.770;2023-03-08T03:48:41;38.30;;;17.70;;
3293;SDS011;1659;51.470;6.770;2023-03-08T03:51:09;35.30;;;17.70;;
3293;SDS011;1659;51.470;6.770;2023-03-08T03:53:37;34.13;;;17.00;;
3293;SDS011;1659;51.470;6.770;2023-03-08T03:56:04;41.50;;;18.33;;
3293;SDS011;1659;51.470;6.770;2023-03-08T03:58:33;34.30;;;16.27;;
3293;SDS011;1659;51.470;6.770;2023-03-08T04:01:00;35.90;;;17.00;;
3293;SDS011;1659;51.470;6.770;2023-03-08T04:03:26;36.17;;;17.20;;
3293;SDS011;1659;51.470;6.770;2023-03-08T04:05:54;40.57;;;17.70;;
3293;SDS011;1659;51.470;6.770;2023-03-08T04:08:31;38.80;;;18.73;;
3293;SDS011;1659;51.470;6.770;2023-03-08T04:10:58;33.10;;;17.90;;
3293;SDS011;1659;51.470;6.770;2023-03-08T04:13:25;37.70;;;18.50;;
3293;SDS011;1659;51.470;6.770;2023-03-08T04:15:52;28.97;;;16.23;;
3293;SDS011;1659;51.470;6.770;2023-03-08T04:18:18;39.30;;;19.50;;
3293;SDS011;1659;51.470;6.770;2023-03-08T04:20:45;36.80;;;18.63;;
3293;SDS011;1659;51.470;6.770;2023-03-08T04:23:13;37.53;;;19.53;;
3293;SDS011;1659;51.470;6.770;2023-03-08T04:25:39;41.57;;;20.57;;
3293;SDS011;1659;51.470;6.770;2023-03-08T04:28:06;37.57;;;18.13;;
3293;SDS011;1659;51.470;6.770;2023-03-08T04:30:32;41.37;;;19.30;;
3293;SDS011;1659;51.470;6.770;2023-03-08T04:32:59;43.47;;;21.30;;
3293;SDS011;1659;51.470;6.770;2023-03-08T04:35:25;50.00;;;21.17;;
3293;SDS011;1659;51.470;6.770;2023-03-08T04:37:52;50.23;;;22.20;;
3293;SDS011;1659;51.470;6.770;2023-03-08T04:40:20;42.87;;;20.00;;
3293;SDS011;1659;51.470;6.770;2023-03-08T04:42:46;44.00;;;19.33;;
3293;SDS011;1659;51.470;6.770;2023-03-08T04:45:13;46.53;;;20.13;;
3293;SDS011;1659;51.470;6.770;2023-03-08T04:47:40;43.00;;;20.03;;
3293;SDS011;1659;51.470;6.770;2023-03-08T04:50:07;48.77;;;20.57;;
3293;SDS011;1659;51.470;6.770;2023-03-08T04:52:34;48.40;;;22.67;;
3293;SDS011;1659;51.470;6.770;2023-03-08T04:55:01;42.07;;;21.20;;
3293;SDS011;1659;51.470;6.770;2023-03-08T04:57:28;44.47;;;20.10;;
3293;SDS011;1659;51.470;6.770;2023-03-08T04:59:55;48.97;;;21.67;;
3293;SDS011;1659;51.470;6.770;2023-03-08T05:02:22;54.30;;;22.30;;
3293;SDS011;1659;51.470;6.770;2023-03-08T05:04:49;48.10;;;21.57;;
3293;SDS011;1659;51.470;6.770;2023-03-08T05:07:15;44.90;;;20.17;;
3293;SDS011;1659;51.470;6.770;2023-03-08T05:09:42;45.80;;;22.03;;
3293;SDS011;1659;51.470;6.770;2023-03-08T05:12:08;53.23;;;22.60;;
3293;SDS011;1659;51.470;6.770;2023-03-08T05:14:36;46.90;;;21.97;;
3293;SDS011;1659;51.470;6.770;2023-03-08T05:17:03;48.53;;;21.23;;
3293;SDS011;1659;51.470;6.770;2023-03-08T05:19:29;46.70;;;21.63;;
3293;SDS011;1659;51.470;6.770;2023-03-08T05:21:56;47.97;;;20.17;;
3293;SDS011;1659;51.470;6.770;2023-03-08T05:24:22;53.23;;;20.87;;
3293;SDS011;1659;51.470;6.770;2023-03-08T05:26:49;53.37;;;22.90;;
3293;SDS011;1659;51.470;6.770;2023-03-08T05:29:15;47.67;;;22.70;;
3293;SDS011;1659;51.470;6.770;2023-03-08T05:31:43;54.70;;;22.23;;
3293;SDS011;1659;51.470;6.770;2023-03-08T05:34:10;52.20;;;21.60;;
3293;SDS011;1659;51.470;6.770;2023-03-08T05:36:37;41.47;;;20.90;;
3293;SDS011;1659;51.470;6.770;2023-03-08T05:39:03;50.13;;;21.40;;
3293;SDS011;1659;51.470;6.770;2023-03-08T05:41:30;52.43;;;19.57;;
3293;SDS011;1659;51.470;6.770;2023-03-08T05:43:58;48.47;;;22.20;;
3293;SDS011;1659;51.470;6.770;2023-03-08T05:46:25;43.00;;;20.50;;
3293;SDS011;1659;51.470;6.770;2023-03-08T05:48:53;53.93;;;21.10;;
3293;SDS011;1659;51.470;6.770;2023-03-08T05:51:20;46.50;;;20.47;;
3293;SDS011;1659;51.470;6.770;2023-03-08T05:53:46;54.50;;;21.80;;
3293;SDS011;1659;51.470;6.770;2023-03-08T05:56:14;50.13;;;21.70;;
3293;SDS011;1659;51.470;6.770;2023-03-08T05:58:42;47.67;;;21.73;;
3293;SDS011;1659;51.470;6.770;2023-03-08T06:01:10;43.10;;;19.80;;
3293;SDS011;1659;51.470;6.770;2023-03-08T06:03:37;47.70;;;20.83;;
3293;SDS011;1659;51.470;6.770;2023-03-08T06:06:05;42.63;;;20.20;;
3293;SDS011;1659;51.470;6.770;2023-03-08T06:08:32;41.90;;;20.13;;
3293;SDS011;1659;51.470;6.770;2023-03-08T06:10:59;35.90;;;14.90;;
3293;SDS011;1659;51.470;6.770;2023-03-08T06:13:26;42.23;;;19.87;;
3293;SDS011;1659;51.470;6.770;2023-03-08T06:15:53;43.70;;;19.03;;
3293;SDS011;1659;51.470;6.770;2023-03-08T06:18:20;34.50;;;17.37;;
3293;SDS011;1659;51.470;6.770;2023-03-08T06:20:54;40.27;;;17.40;;
3293;SDS011;1659;51.470;6.770;2023-03-08T06:23:22;35.57;;;14.53;;
3293;SDS011;1659;51.470;6.770;2023-03-08T06:25:49;37.53;;;16.83;;
3293;SDS011;1659;51.470;6.770;2023-03-08T06:28:16;33.03;;;15.33;;
3293;SDS011;1659;51.470;6.770;2023-03-08T06:30:42;28.70;;;14.10;;
3293;SDS011;1659;51.470;6.770;2023-03-08T06:33:09;23.93;;;13.30;;
3293;SDS011;1659;51.470;6.770;2023-03-08T06:35:35;34.30;;;15.13;;
3293;SDS011;1659;51.470;6.770;2023-03-08T06:38:02;27.60;;;12.90;;
3293;SDS011;1659;51.470;6.770;2023-03-08T06:40:30;38.60;;;15.17;;
3293;SDS011;1659;51.470;6.770;2023-03-08T06:42:56;27.63;;;12.90;;
3293;SDS011;1659;51.470;6.770;2023-03-08T06:45:23;28.03;;;13.00;;
3293;SDS011;1659;51.470;6.770;2023-03-08T06:47:49;30.83;;;14.30;;
3293;SDS011;1659;51.470;6.770;2023-03-08T06:50:16;34.40;;;13.03;;
3293;SDS011;1659;51.470;6.770;2023-03-08T06:52:43;32.90;;;12.40;;
3293;SDS011;1659;51.470;6.770;2023-03-08T06:55:09;25.30;;;12.80;;
3293;SDS011;1659;51.470;6.770;2023-03-08T06:57:37;24.33;;;11.80;;
3293;SDS011;1659;51.470;6.770;2023-03-08T07:00:04;24.90;;;10.50;;
3293;SDS011;1659;51.470;6.770;2023-03-08T07:02:33;20.67;;;11.00;;
3293;SDS011;1659;51.470;6.770;2023-03-08T07:05:00;24.60;;;12.30;;
3293;SDS011;1659;51.470;6.770;2023-03-08T07:07:26;31.53;;;11.57;;
3293;SDS011;1659;51.470;6.770;2023-03-08T07:09:53;25.77;;;10.17;;
3293;SDS011;1659;51.470;6.770;2023-03-08T07:12:19;22.60;;;9.70;;
3293;SDS011;1659;51.470;6.770;2023-03-08T07:14:47;24.80;;;10.80;;
3293;SDS011;1659;51.470;6.770;2023-03-08T07:17:14;17.67;;;10.63;;
3293;SDS011;1659;51.470;6.770;2023-03-08T07:19:41;15.00;;;9.03;;
3293;SDS011;1659;51.470;6.770;2023-03-08T07:22:07;13.17;;;8.43;;
3293;SDS011;1659;51.470;6.770;2023-03-08T07:24:34;13.00;;;7.63;;
3293;SDS011;1659;51.470;6.770;2023-03-08T07:27:01;14.03;;;7.23;;
3293;SDS011;1659;51.470;6.770;2023-03-08T07:29:27;12.20;;;5.73;;
3293;SDS011;1659;51.470;6.770;2023-03-08T07:31:55;11.10;;;7.20;;
3293;SDS011;1659;51.470;6.770;2023-03-08T07:34:22;11.27;;;6.37;;
3293;SDS011;1659;51.470;6.770;2023-03-08T07:36:48;11.40;;;6.70;;
3293;SDS011;1659;51.470;6.770;2023-03-08T07:39:15;13.37;;;7.17;;
3293;SDS011;1659;51.470;6.770;2023-03-08T07:41:42;18.77;;;9.37;;
3293;SDS011;1659;51.470;6.770;2023-03-08T07:44:08;13.43;;;6.97;;
3293;SDS011;1659;51.470;6.770;2023-03-08T07:46:35;11.10;;;6.63;;
3293;SDS011;1659;51.470;6.770;2023-03-08T07:49:03;11.53;;;6.27;;
3293;SDS011;1659;51.470;6.770;2023-03-08T07:51:34;9.40;;;6.80;;
3293;SDS011;1659;51.470;6.770;2023-03-08T07:54:01;14.00;;;6.90;;
3293;SDS011;1659;51.470;6.770;2023-03-08T07:56:28;10.27;;;5.97;;
3293;SDS011;1659;51.470;6.770;2023-03-08T07:58:54;12.70;;;6.70;;
3293;SDS011;1659;51.470;6.770;2023-03-08T08:01:21;10.57;;;6.50;;
3293;SDS011;1659;51.470;6.770;2023-03-08T08:03:48;9.40;;;7.03;;
3293;SDS011;1659;51.470;6.770;2023-03-08T08:06:17;13.47;;;7.70;;
3293;SDS011;1659;51.470;6.770;2023-03-08T08:08:43;12.33;;;7.00;;
3293;SDS011;1659;51.470;6.770;2023-03-08T08:11:11;8.13;;;5.87;;
3293;SDS011;1659;51.470;6.770;2023-03-08T08:13:38;12.80;;;6.77;;
3293;SDS011;1659;51.470;6.770;2023-03-08T08:16:05;8.63;;;5.90;;
3293;SDS011;1659;51.470;6.770;2023-03-08T08:18:32;9.40;;;6.33;;
3293;SDS011;1659;51.470;6.770;2023-03-08T08:20:59;9.87;;;6.07;;
3293;SDS011;1659;51.470;6.770;2023-03-08T08:23:28;13.00;;;6.23;;
3293;SDS011;1659;51.470;6.770;2023-03-08T08:25:55;7.67;;;5.70;;
3293;SDS011;1659;51.470;6.770;2023-03-08T08:28:22;8.93;;;5.60;;
3293;SDS011;1659;51.470;6.770;2023-03-08T08:30:56;8.53;;;5.40;;
3293;SDS011;1659;51.470;6.770;2023-03-08T08:33:23;10.73;;;4.90;;
3293;SDS011;1659;51.470;6.770;2023-03-08T08:35:50;7.83;;;5.30;;
3293;SDS011;1659;51.470;6.770;2023-03-08T08:38:16;13.03;;;6.07;;
3293;SDS011;1659;51.470;6.770;2023-03-08T08:40:44;7.53;;;4.90;;
3293;SDS011;1659;51.470;6.770;2023-03-08T08:43:11;9.93;;;5.70;;
3293;SDS011;1659;51.470;6.770;2023-03-08T08:45:41;11.93;;;6.70;;
3293;SDS011;1659;51.470;6.770;2023-03-08T08:48:08;8.37;;;6.07;;
3293;SDS011;1659;51.470;6.770;2023-03-08T08:50:36;11.20;;;5.50;;
3293;SDS011;1659;51.470;6.770;2023-03-08T08:53:02;8.90;;;5.43;;
3293;SDS011;1659;51.470;6.770;2023-03-08T08:55:29;8.17;;;5.30;;
3293;SDS011;1659;51.470;6.770;2023-03-08T08:57:57;13.00;;;6.40;;
3293;SDS011;1659;51.470;6.770;2023-03-08T09:00:24;15.10;;;8.83;;
3293;SDS011;1659;51.470;6.770;2023-03-08T09:02:50;16.33;;;9.40;;
3293;SDS011;1659;51.470;6.770;2023-03-08T09:05:17;20.33;;;10.07;;
3293;SDS011;1659;51.470;6.770;2023-03-08T09:07:44;22.90;;;10.53;;
3293;SDS011;1659;51.470;6.770;2023-03-08T09:10:11;20.73;;;10.17;;
3293;SDS011;1659;51.470;6.770;2023-03-08T09:12:37;14.43;;;8.40;;
3293;SDS011;1659;51.470;6.770;2023-03-08T09:15:06;10.17;;;8.40;;
3293;SDS011;1659;51.470;6.770;2023-03-08T09:17:34;14.40;;;6.83;;
3293;SDS011;1659;51.470;6.770;2023-03-08T09:20:01;11.60;;;8.13;;
3293;SDS011;1659;51.470;6.770;2023-03-08T09:22:30;18.13;;;9.47;;
3293;SDS011;1659;51.470;6.770;2023-03-08T09:24:56;16.90;;;8.90;;
3293;SDS011;1659;51.470;6.770;2023-03-08T09:27:23;18.43;;;9.97;;
3293;SDS011;1659;51.470;6.770;2023-03-08T09:29:49;21.37;;;11.23;;
3293;SDS011;1659;51.470;6.770;2023-03-08T09:32:17;20.67;;;11.40;;
3293;SDS011;1659;51.470;6.770;2023-03-08T09:34:44;11.97;;;8.17;;
3293;SDS011;1659;51.470;6.770;2023-03-08T09:37:10;16.40;;;9.30;;
3293;SDS011;1659;51.470;6.770;2023-03-08T09:39:37;15.03;;;8.27;;
3293;SDS011;1659;51.470;6.770;2023-03-08T09:42:04;17.43;;;9.40;;
3293;SDS011;1659;51.470;6.770;2023-03-08T09:44:51;13.03;;;9.20;;
3293;SDS011;1659;51.470;6.770;2023-03-08T09:47:29;17.10;;;9.13;;
3293;SDS011;1659;51.470;6.770;2023-03-08T09:50:03;17.20;;;9.03;;
3293;SDS011;1659;51.470;6.770;2023-03-08T09:52:41;22.27;;;9.40;;
3293;SDS011;1659;51.470;6.770;2023-03-08T09:55:12;17.67;;;9.83;;
3293;SDS011;1659;51.470;6.770;2023-03-08T09:57:45;14.77;;;9.17;;
3293;SDS011;1659;51.470;6.770;2023-03-08T10:00:18;10.57;;;7.77;;
3293;SDS011;1659;51.470;6.770;2023-03-08T10:02:48;16.60;;;7.50;;
3293;SDS011;1659;51.470;6.770;2023-03-08T10:05:22;16.50;;;7.30;;
3293;SDS011;1659;51.470;6.770;2023-03-08T10:07:54;14.90;;;7.40;;
3293;SDS011;1659;51.470;6.770;2023-03-08T10:10:35;12.33;;;7.10;;
3293;SDS011;1659;51.470;6.770;2023-03-08T10:13:15;12.67;;;8.50;;
3293;SDS011;1659;51.470;6.770;2023-03-08T10:15:53;15.00;;;7.93;;
3293;SDS011;1659;51.470;6.770;2023-03-08T10:18:30;19.73;;;11.47;;
3293;SDS011;1659;51.470;6.770;2023-03-08T10:21:03;14.87;;;10.40;;
3293;SDS011;1659;51.470;6.770;2023-03-08T10:23:31;19.97;;;12.47;;
3293;SDS011;1659;51.470;6.770;2023-03-08T10:25:58;19.43;;;11.33;;
3293;SDS011;1659;51.470;6.770;2023-03-08T10:28:26;22.27;;;12.60;;
3293;SDS011;1659;51.470;6.770;2023-03-08T10:30:53;16.47;;;10.17;;
3293;SDS011;1659;51.470;6.770;2023-03-08T10:33:23;22.90;;;11.60;;
3293;SDS011;1659;51.470;6.770;2023-03-08T10:35:54;19.47;;;11.10;;
3293;SDS011;1659;51.470;6.770;2023-03-08T10:38:24;17.90;;;11.43;;
3293;SDS011;1659;51.470;6.770;2023-03-08T10:40:58;16.40;;;9.63;;
3293;SDS011;1659;51.470;6.770;2023-03-08T10:43:26;13.00;;;8.60;;
3293;SDS011;1659;51.470;6.770;2023-03-08T10:45:59;19.97;;;10.33;;
3293;SDS011;1659;51.470;6.770;2023-03-08T10:48:28;16.23;;;10.50;;
3293;SDS011;1659;51.470;6.770;2023-03-08T10:50:59;15.90;;;10.07;;
3293;SDS011;1659;51.470;6.770;2023-03-08T10:53:28;18.73;;;10.73;;
3293;SDS011;1659;51.470;6.770;2023-03-08T10:55:56;14.03;;;9.57;;
3293;SDS011;1659;51.470;6.770;2023-03-08T10:58:25;20.50;;;12.50;;
3293;SDS011;1659;51.470;6.770;2023-03-08T11:00:56;12.83;;;8.93;;
3293;SDS011;1659;51.470;6.770;2023-03-08T11:03:25;17.60;;;9.50;;
3293;SDS011;1659;51.470;6.770;2023-03-08T11:05:54;18.53;;;11.87;;
3293;SDS011;1659;51.470;6.770;2023-03-08T11:08:24;20.53;;;11.43;;
3293;SDS011;1659;51.470;6.770;2023-03-08T11:11:02;18.53;;;10.73;;
3293;SDS011;1659;51.470;6.770;2023-03-08T11:13:35;17.20;;;10.60;;
3293;SDS011;1659;51.470;6.770;2023-03-08T11:16:06;16.13;;;9.70;;
3293;SDS011;1659;51.470;6.770;2023-03-08T11:18:45;13.53;;;9.27;;
3293;SDS011;1659;51.470;6.770;2023-03-08T11:21:25;20.87;;;10.37;;
3293;SDS011;1659;51.470;6.770;2023-03-08T11:24:00;16.53;;;9.90;;
3293;SDS011;1659;51.470;6.770;2023-03-08T11:26:39;14.80;;;10.40;;
3293;SDS011;1659;51.470;6.770;2023-03-08T11:29:16;18.63;;;10.90;;
3293;SDS011;1659;51.470;6.770;2023-03-08T11:31:53;19.30;;;10.10;;
3293;SDS011;1659;51.470;6.770;2023-03-08T11:34:34;18.80;;;9.87;;
3293;SDS011;1659;51.470;6.770;2023-03-08T11:37:12;18.53;;;10.03;;
3293;SDS011;1659;51.470;6.770;2023-03-08T11:39:50;14.73;;;9.87;;
3293;SDS011;1659;51.470;6.770;2023-03-08T11:42:22;15.33;;;10.07;;
3293;SDS011;1659;51.470;6.770;2023-03-08T11:45:03;15.43;;;10.07;;
3293;SDS011;1659;51.470;6.770;2023-03-08T11:50:34;19.37;;;11.87;;
3293;SDS011;1659;51.470;6.770;2023-03-08T11:53:10;14.80;;;9.70;;
3293;SDS011;1659;51.470;6.770;2023-03-08T11:56:10;21.23;;;11.20;;
3293;SDS011;1659;51.470;6.770;2023-03-08T11:58:51;22.60;;;12.47;;
3293;SDS011;1659;51.470;6.770;2023-03-08T12:01:22;18.30;;;10.60;;
3293;SDS011;1659;51.470;6.770;2023-03-08T12:03:53;19.80;;;12.63;;
3293;SDS011;1659;51.470;6.770;2023-03-08T12:06:24;18.40;;;11.80;;
3293;SDS011;1659;51.470;6.770;2023-03-08T12:08:55;17.90;;;12.10;;
3293;SDS011;1659;51.470;6.770;2023-03-08T12:11:27;19.53;;;12.10;;
3293;SDS011;1659;51.470;6.770;2023-03-08T12:14:00;16.40;;;10.07;;
3293;SDS011;1659;51.470;6.770;2023-03-08T12:16:31;17.97;;;10.90;;
3293;SDS011;1659;51.470;6.770;2023-03-08T12:19:07;17.20;;;10.30;;
3293;SDS011;1659;51.470;6.770;2023-03-08T12:21:43;17.00;;;10.30;;
3293;SDS011;1659;51.470;6.770;2023-03-08T12:24:19;17.23;;;11.43;;
3293;SDS011;1659;51.470;6.770;2023-03-08T12:26:55;17.93;;;11.30;;
3293;SDS011;1659;51.470;6.770;2023-03-08T12:29:27;15.07;;;9.13;;
3293;SDS011;1659;51.470;6.770;2023-03-08T12:32:00;14.77;;;9.73;;
3293;SDS011;1659;51.470;6.770;2023-03-08T12:34:28;13.73;;;9.53;;
3293;SDS011;1659;51.470;6.770;2023-03-08T12:37:02;17.53;;;9.97;;
3293;SDS011;1659;51.470;6.770;2023-03-08T12:39:29;17.30;;;11.40;;
3293;SDS011;1659;51.470;6.770;2023-03-08T12:41:59;18.17;;;11.60;;
3293;SDS011;1659;51.470;6.770;2023-03-08T12:44:28;22.20;;;12.00;;
3293;SDS011;1659;51.470;6.770;2023-03-08T12:46:56;17.80;;;11.10;;
3293;SDS011;1659;51.470;6.770;2023-03-08T12:49:28;18.17;;;11.80;;
3293;SDS011;1659;51.470;6.770;2023-03-08T12:51:58;18.00;;;10.83;;
3293;SDS011;1659;51.470;6.770;2023-03-08T12:54:28;20.23;;;11.90;;
3293;SDS011;1659;51.470;6.770;2023-03-08T12:56:59;20.57;;;11.97;;
3293;SDS011;1659;51.470;6.770;2023-03-08T12:59:32;19.53;;;12.30;;
3293;SDS011;1659;51.470;6.770;2023-03-08T13:02:15;26.80;;;13.87;;
3293;SDS011;1659;51.470;6.770;2023-03-08T13:04:48;26.83;;;15.23;;
3293;SDS011;1659;51.470;6.770;2023-03-08T13:07:28;26.33;;;14.33;;
3293;SDS011;1659;51.470;6.770;2023-03-08T13:10:02;24.60;;;14.60;;
3293;SDS011;1659;51.470;6.770;2023-03-08T13:12:37;27.40;;;15.87;;
3293;SDS011;1659;51.470;6.770;2023-03-08T13:15:22;29.60;;;15.73;;
3293;SDS011;1659;51.470;6.770;2023-03-08T13:17:52;33.20;;;18.07;;
3293;SDS011;1659;51.470;6.770;2023-03-08T13:20:28;43.87;;;21.10;;
3293;SDS011;1659;51.470;6.770;2023-03-08T13:23:17;38.03;;;19.27;;
3293;SDS011;1659;51.470;6.770;2023-03-08T13:25:53;37.67;;;20.87;;
3293;SDS011;1659;51.470;6.770;2023-03-08T13:28:32;39.77;;;19.53;;
3293;SDS011;1659;51.470;6.770;2023-03-08T13:31:00;36.43;;;18.47;;
3293;SDS011;1659;51.470;6.770;2023-03-08T13:33:29;33.80;;;19.10;;
3293;SDS011;1659;51.470;6.770;2023-03-08T13:36:02;46.53;;;20.40;;
3293;SDS011;1659;51.470;6.770;2023-03-08T13:38:31;37.13;;;20.33;;
3293;SDS011;1659;51.470;6.770;2023-03-08T13:40:59;42.20;;;22.00;;
3293;SDS011;1659;51.470;6.770;2023-03-08T13:43:27;44.93;;;23.27;;
3293;SDS011;1659;51.470;6.770;2023-03-08T13:45:56;43.50;;;22.87;;
3293;SDS011;1659;51.470;6.770;2023-03-08T13:48:25;61.57;;;28.60;;
3293;SDS011;1659;51.470;6.770;2023-03-08T13:50:55;50.20;;;24.07;;
3293;SDS011;1659;51.470;6.770;2023-03-08T13:53:22;44.73;;;22.57;;
3293;SDS011;1659;51.470;6.770;2023-03-08T13:55:52;39.07;;;21.67;;
3293;SDS011;1659;51.470;6.770;2023-03-08T13:58:26;42.13;;;22.13;;
3293;SDS011;1659;51.470;6.770;2023-03-08T14:00:58;43.93;;;23.20;;
3293;SDS011;1659;51.470;6.770;2023-03-08T14:03:27;46.77;;;21.20;;
3293;SDS011;1659;51.470;6.770;2023-03-08T14:05:54;41.73;;;22.60;;
3293;SDS011;1659;51.470;6.770;2023-03-08T14:08:23;45.77;;;23.83;;
3293;SDS011;1659;51.470;6.770;2023-03-08T14:10:51;49.10;;;24.23;;
3293;SDS011;1659;51.470;6.770;2023-03-08T14:13:22;50.93;;;24.77;;
3293;SDS011;1659;51.470;6.770;2023-03-08T14:15:52;42.37;;;22.40;;
3293;SDS011;1659;51.470;6.770;2023-03-08T14:18:22;46.17;;;23.80;;
3293;SDS011;1659;51.470;6.770;2023-03-08T14:21:02;40.17;;;21.60;;
3293;SDS011;1659;51.470;6.770;2023-03-08T14:23:32;45.17;;;21.57;;
3293;SDS011;1659;51.470;6.770;2023-03-08T14:26:05;41.27;;;21.70;;
3293;SDS011;1659;51.470;6.770;2023-03-08T14:28:32;46.60;;;21.23;;
3293;SDS011;1659;51.470;6.770;2023-03-08T14:31:20;37.43;;;20.80;;
3293;SDS011;1659;51.470;6.770;2023-03-08T14:33:56;31.27;;;16.93;;
3293;SDS011;1659;51.470;6.770;2023-03-08T14:36:24;35.87;;;18.97;;
3293;SDS011;1659;51.470;6.770;2023-03-08T14:38:51;33.40;;;18.73;;
3293;SDS011;1659;51.470;6.770;2023-03-08T14:41:27;35.87;;;18.20;;
3293;SDS011;1659;51.470;6.770;2023-03-08T14:43:56;46.23;;;22.63;;
3293;SDS011;1659;51.470;6.770;2023-03-08T14:46:22;41.47;;;23.13;;
3293;SDS011;1659;51.470;6.770;2023-03-08T14:48:56;35.13;;;19.70;;
3293;SDS011;1659;51.470;6.770;2023-03-08T14:51:25;36.17;;;20.43;;
3293;SDS011;1659;51.470;6.770;2023-03-08T14:53:55;34.97;;;18.93;;
3293;SDS011;1659;51.470;6.770;2023-03-08T14:56:23;32.90;;;17.67;;
3293;SDS011;1659;51.470;6.770;2023-03-08T14:58:50;38.23;;;20.00;;
3293;SDS011;1659;51.470;6.770;2023-03-08T15:01:22;35.47;;;18.83;;
3293;SDS011;1659;51.470;6.770;2023-03-08T15:03:50;32.80;;;16.40;;
3293;SDS011;1659;51.470;6.770;2023-03-08T15:06:19;28.57;;;17.00;;
3293;SDS011;1659;51.470;6.770;2023-03-08T15:08:47;26.00;;;15.00;;